Dominia — ICFW — position and weather

sailwx.info

Track history (hours):
 
Tides and Currents Weather Stations Pressure Air Temp Water Temp Dewpoint Dewpoint Depression Visibility Wind Speed Wind Dir Waves Ship Positions

Dominia

Last reported at 2017-Jun-27 01:30 UTC. Time now 2017-Jun-27 01:57 UTC.
Position N 32°06' E 033°52'.

Length 176 m; draft 9.5 m.

Type: Tanker. MMSI: 247273400.

Date/timePositionNaut miles runAvg speedWind from/ knotsBaromVisibWave heightAir tempDewpointWater temp
2017-Jun-27 01:30N 32°06' E 033°52'611.8
2017-Jun-27 01:00N 32°08' E 033°45'611.7
2017-Jun-27 00:31N 32°11' E 033°39'611.7
2017-Jun-27 00:01N 32°13' E 033°33'611.8
2017-Jun-26 23:30N 32°16' E 033°26'612.1
2017-Jun-26 23:00N 32°18' E 033°20'612.1
2017-Jun-26 22:31N 32°21' E 033°13'612.1
2017-Jun-26 22:00N 32°23' E 033°07'612.0
2017-Jun-26 21:30N 32°26' E 033°00'611.9
2017-Jun-26 21:00N 32°28' E 032°54'611.9
2017-Jun-26 20:30N 32°30' E 032°47'711.7
2017-Jun-26 19:57N 32°32' E 032°40'511.8
2017-Jun-26 19:31N 32°33' E 032°34'612.0
2017-Jun-26 19:00N 32°35' E 032°27'612.2
2017-Jun-26 18:29N 32°37' E 032°20'612.3
2017-Jun-26 18:01N 32°38' E 032°13'612.2
2017-Jun-26 17:31N 32°40' E 032°06'612.5
2017-Jun-26 17:01N 32°42' E 031°59'612.6
2017-Jun-26 16:30N 32°44' E 031°52'612.5
2017-Jun-26 16:00N 32°45' E 031°44'612.5
2017-Jun-26 15:31N 32°47' E 031°37'1012.4
2017-Jun-26 14:43N 32°50' E 031°26'1012.4
2017-Jun-26 13:57N 32°53' E 031°15'512.5
2017-Jun-26 13:31N 32°54' E 031°09'612.4
2017-Jun-26 13:00N 32°56' E 031°02'612.4
2017-Jun-26 12:29N 32°58' E 030°54'612.3
2017-Jun-26 12:01N 32°59' E 030°48'712.2
2017-Jun-26 11:25N 33°01' E 030°39'512.1
2017-Jun-26 11:00N 33°02' E 030°34'612.0
2017-Jun-26 10:31N 33°04' E 030°27'612.1
2017-Jun-26 10:00N 33°06' E 030°20'8312.5
2017-Jun-26 03:23N 33°29' E 028°45'9512.6
2017-Jun-25 19:50N 33°56' E 026°55'412.5
2017-Jun-25 19:28N 33°57' E 026°50'42112.1
2017-Jun-24 08:37N 38°20' E 020°02'412.6
2017-Jun-24 08:18N 38°23' E 019°60'412.3
2017-Jun-24 08:00N 38°26' E 019°57'1812.0
2017-Jun-24 06:30N 38°42' E 019°46'812.3
2017-Jun-24 05:51N 38°49' E 019°40'512.4
2017-Jun-24 05:28N 38°53' E 019°37'5412.3
2017-Jun-24 01:05N 39°39' E 019°01'312.4
2017-Jun-24 00:52N 39°41' E 018°59'512.2
2017-Jun-24 00:30N 39°45' E 018°56'612.3
2017-Jun-24 00:00N 39°50' E 018°52'912.6
2017-Jun-23 23:17N 39°58' E 018°46'1512.8
2017-Jun-23 22:06N 40°12' E 018°37'112.9
2017-Jun-23 22:00N 40°13' E 018°37'713.0
2017-Jun-23 21:29N 40°19' E 018°33'612.8
2017-Jun-23 21:00N 40°24' E 018°29'812.7
2017-Jun-23 20:20N 40°31' E 018°23'412.8
2017-Jun-23 20:00N 40°35' E 018°19'1212.9
2017-Jun-23 19:05N 40°44' E 018°10'1612.6
2017-Jun-23 17:51N 40°55' E 017°56'712.4
2017-Jun-23 17:18N 40°60' E 017°49'4912.3
2017-Jun-23 13:17N 41°35' E 017°02'812.3
2017-Jun-23 12:39N 41°40' E 016°55'312.3
2017-Jun-23 12:23N 41°42' E 016°52'512.4
2017-Jun-23 11:59N 41°46' E 016°47'612.4
2017-Jun-23 11:28N 41°50' E 016°41'612.3
2017-Jun-23 11:00N 41°54' E 016°36'612.4
2017-Jun-23 10:30N 41°59' E 016°30'612.2
2017-Jun-23 10:00N 42°03' E 016°24'612.1
2017-Jun-23 09:30N 42°07' E 016°18'612.2
2017-Jun-23 08:59N 42°11' E 016°12'612.3
2017-Jun-23 08:30N 42°16' E 016°07'612.4
2017-Jun-23 07:59N 42°21' E 016°01'612.2
2017-Jun-23 07:30N 42°24' E 015°55'612.3
2017-Jun-23 07:00N 42°28' E 015°48'612.4
2017-Jun-23 06:30N 42°32' E 015°42'611.9
2017-Jun-23 05:58N 42°36' E 015°35'611.8
2017-Jun-23 05:29N 42°40' E 015°29'711.8
2017-Jun-23 04:55N 42°44' E 015°22'511.8
2017-Jun-23 04:30N 42°47' E 015°17'611.8
2017-Jun-23 03:59N 42°51' E 015°10'611.7
2017-Jun-23 03:30N 42°55' E 015°05'611.5
2017-Jun-23 03:00N 42°58' E 014°58'611.7
2017-Jun-23 02:29N 43°02' E 014°52'711.8
2017-Jun-23 01:55N 43°06' E 014°45'511.6
2017-Jun-23 01:29N 43°10' E 014°40'711.7
2017-Jun-23 00:52N 43°14' E 014°32'1011.9
2017-Jun-23 00:04N 43°20' E 014°22'112.1
2017-Jun-23 00:00N 43°21' E 014°21'612.1
2017-Jun-22 23:30N 43°25' E 014°15'911.9
2017-Jun-22 22:43N 43°31' E 014°05'411.8
2017-Jun-22 22:23N 43°33' E 014°00'1910.7
2017-Jun-22 20:38N 43°40' E 013°37'311.7
2017-Jun-22 20:24N 43°39' E 013°33'4 9.7
2017-Jun-22 20:00N 43°40' E 013°28'2 0.1
2017-Jun-21 15:03N 43°40' E 013°24'0 0.0
2017-Jun-21 14:42N 43°40' E 013°24'0 0.0
2017-Jun-21 10:48N 43°40' E 013°24'0 0.0
2017-Jun-20 19:42N 43°40' E 013°24'0 0.0
2017-Jun-20 19:21N 43°40' E 013°24'0 0.0
2017-Jun-20 18:51N 43°40' E 013°24'0 0.0
2017-Jun-20 18:06N 43°40' E 013°24'0 0.0
2017-Jun-20 17:57N 43°40' E 013°24'0 0.0
2017-Jun-20 14:48N 43°40' E 013°24'0 0.0
2017-Jun-20 13:58N 43°40' E 013°24'0 0.0
2017-Jun-20 13:28N 43°40' E 013°24'2 3.3
2017-Jun-20 12:59N 43°40' E 013°27'0 0.2
2017-Jun-20 11:56N 43°40' E 013°26'0 0.0
2017-Jun-20 08:05N 43°40' E 013°27'0 0.0
2017-Jun-20 07:53N 43°40' E 013°27'0 0.0
2017-Jun-20 07:17N 43°40' E 013°27'0 0.0
2017-Jun-20 06:59N 43°40' E 013°27'0 0.0
2017-Jun-20 06:26N 43°40' E 013°27'0 0.0
2017-Jun-20 05:56N 43°40' E 013°27'0 0.0
2017-Jun-20 05:26N 43°40' E 013°27'0 0.1
2017-Jun-20 04:20N 43°40' E 013°27'0 0.0
2017-Jun-20 03:53N 43°40' E 013°27'0 0.0
2017-Jun-20 03:23N 43°40' E 013°27'0 0.0
2017-Jun-20 02:23N 43°40' E 013°27'0 0.0
2017-Jun-20 01:53N 43°40' E 013°27'0 0.0
2017-Jun-20 01:23N 43°40' E 013°27'0 0.1
2017-Jun-20 00:56N 43°40' E 013°27'0 0.0
2017-Jun-20 00:26N 43°40' E 013°27'0 0.0
2017-Jun-19 23:53N 43°40' E 013°27'0 0.0
2017-Jun-19 23:23N 43°40' E 013°27'0 0.0
2017-Jun-19 19:47N 43°40' E 013°27'0 0.0
2017-Jun-19 18:38N 43°40' E 013°27'0 0.1
2017-Jun-19 18:26N 43°40' E 013°27'0 0.1
2017-Jun-19 17:59N 43°40' E 013°27'  
Track history (hours):
 
Tides and Currents Weather Stations Pressure Air Temp Water Temp Dewpoint Dewpoint Depression Visibility Wind Speed Wind Dir Waves Ship Positions

Dominia

Last reported at 2017-Jun-27 01:30 UTC. Time now 2017-Jun-27 01:57 UTC.
Position N 32°06' E 033°52'.

Length 176 m; draft 9.5 m.

Type: Tanker. MMSI: 247273400.

Date/timePositionNaut miles runAvg speedWind from/ knotsBaromVisibWave heightAir tempDewpointWater temp
2017-Jun-27 01:30N 32°06' E 033°52'611.8
2017-Jun-27 01:00N 32°08' E 033°45'611.7
2017-Jun-27 00:31N 32°11' E 033°39'611.7
2017-Jun-27 00:01N 32°13' E 033°33'611.8
2017-Jun-26 23:30N 32°16' E 033°26'612.1
2017-Jun-26 23:00N 32°18' E 033°20'612.1
2017-Jun-26 22:31N 32°21' E 033°13'612.1
2017-Jun-26 22:00N 32°23' E 033°07'612.0
2017-Jun-26 21:30N 32°26' E 033°00'611.9
2017-Jun-26 21:00N 32°28' E 032°54'611.9
2017-Jun-26 20:30N 32°30' E 032°47'711.7
2017-Jun-26 19:57N 32°32' E 032°40'511.8
2017-Jun-26 19:31N 32°33' E 032°34'612.0
2017-Jun-26 19:00N 32°35' E 032°27'612.2
2017-Jun-26 18:29N 32°37' E 032°20'612.3
2017-Jun-26 18:01N 32°38' E 032°13'612.2
2017-Jun-26 17:31N 32°40' E 032°06'612.5
2017-Jun-26 17:01N 32°42' E 031°59'612.6
2017-Jun-26 16:30N 32°44' E 031°52'612.5
2017-Jun-26 16:00N 32°45' E 031°44'612.5
2017-Jun-26 15:31N 32°47' E 031°37'1012.4
2017-Jun-26 14:43N 32°50' E 031°26'1012.4
2017-Jun-26 13:57N 32°53' E 031°15'512.5
2017-Jun-26 13:31N 32°54' E 031°09'612.4
2017-Jun-26 13:00N 32°56' E 031°02'612.4
2017-Jun-26 12:29N 32°58' E 030°54'612.3
2017-Jun-26 12:01N 32°59' E 030°48'712.2
2017-Jun-26 11:25N 33°01' E 030°39'512.1
2017-Jun-26 11:00N 33°02' E 030°34'612.0
2017-Jun-26 10:31N 33°04' E 030°27'612.1
2017-Jun-26 10:00N 33°06' E 030°20'8312.5
2017-Jun-26 03:23N 33°29' E 028°45'9512.6
2017-Jun-25 19:50N 33°56' E 026°55'412.5
2017-Jun-25 19:28N 33°57' E 026°50'42112.1
2017-Jun-24 08:37N 38°20' E 020°02'412.6
2017-Jun-24 08:18N 38°23' E 019°60'412.3
2017-Jun-24 08:00N 38°26' E 019°57'1812.0
2017-Jun-24 06:30N 38°42' E 019°46'812.3
2017-Jun-24 05:51N 38°49' E 019°40'512.4
2017-Jun-24 05:28N 38°53' E 019°37'5412.3
2017-Jun-24 01:05N 39°39' E 019°01'312.4
2017-Jun-24 00:52N 39°41' E 018°59'512.2
2017-Jun-24 00:30N 39°45' E 018°56'612.3
2017-Jun-24 00:00N 39°50' E 018°52'912.6
2017-Jun-23 23:17N 39°58' E 018°46'1512.8
2017-Jun-23 22:06N 40°12' E 018°37'112.9
2017-Jun-23 22:00N 40°13' E 018°37'713.0
2017-Jun-23 21:29N 40°19' E 018°33'612.8
2017-Jun-23 21:00N 40°24' E 018°29'812.7
2017-Jun-23 20:20N 40°31' E 018°23'412.8
2017-Jun-23 20:00N 40°35' E 018°19'1212.9
2017-Jun-23 19:05N 40°44' E 018°10'1612.6
2017-Jun-23 17:51N 40°55' E 017°56'712.4
2017-Jun-23 17:18N 40°60' E 017°49'4912.3
2017-Jun-23 13:17N 41°35' E 017°02'812.3
2017-Jun-23 12:39N 41°40' E 016°55'312.3
2017-Jun-23 12:23N 41°42' E 016°52'512.4
2017-Jun-23 11:59N 41°46' E 016°47'612.4
2017-Jun-23 11:28N 41°50' E 016°41'612.3
2017-Jun-23 11:00N 41°54' E 016°36'612.4
2017-Jun-23 10:30N 41°59' E 016°30'612.2
2017-Jun-23 10:00N 42°03' E 016°24'612.1
2017-Jun-23 09:30N 42°07' E 016°18'612.2
2017-Jun-23 08:59N 42°11' E 016°12'612.3
2017-Jun-23 08:30N 42°16' E 016°07'612.4
2017-Jun-23 07:59N 42°21' E 016°01'612.2
2017-Jun-23 07:30N 42°24' E 015°55'612.3
2017-Jun-23 07:00N 42°28' E 015°48'612.4
2017-Jun-23 06:30N 42°32' E 015°42'611.9
2017-Jun-23 05:58N 42°36' E 015°35'611.8
2017-Jun-23 05:29N 42°40' E 015°29'711.8
2017-Jun-23 04:55N 42°44' E 015°22'511.8
2017-Jun-23 04:30N 42°47' E 015°17'611.8
2017-Jun-23 03:59N 42°51' E 015°10'611.7
2017-Jun-23 03:30N 42°55' E 015°05'611.5
2017-Jun-23 03:00N 42°58' E 014°58'611.7
2017-Jun-23 02:29N 43°02' E 014°52'711.8
2017-Jun-23 01:55N 43°06' E 014°45'511.6
2017-Jun-23 01:29N 43°10' E 014°40'711.7
2017-Jun-23 00:52N 43°14' E 014°32'1011.9
2017-Jun-23 00:04N 43°20' E 014°22'112.1
2017-Jun-23 00:00N 43°21' E 014°21'612.1
2017-Jun-22 23:30N 43°25' E 014°15'911.9
2017-Jun-22 22:43N 43°31' E 014°05'411.8
2017-Jun-22 22:23N 43°33' E 014°00'1910.7
2017-Jun-22 20:38N 43°40' E 013°37'311.7
2017-Jun-22 20:24N 43°39' E 013°33'4 9.7
2017-Jun-22 20:00N 43°40' E 013°28'2 0.1
2017-Jun-21 15:03N 43°40' E 013°24'0 0.0
2017-Jun-21 14:42N 43°40' E 013°24'0 0.0
2017-Jun-21 10:48N 43°40' E 013°24'0 0.0
2017-Jun-20 19:42N 43°40' E 013°24'0 0.0
2017-Jun-20 19:21N 43°40' E 013°24'0 0.0
2017-Jun-20 18:51N 43°40' E 013°24'0 0.0
2017-Jun-20 18:06N 43°40' E 013°24'0 0.0
2017-Jun-20 17:57N 43°40' E 013°24'0 0.0
2017-Jun-20 14:48N 43°40' E 013°24'0 0.0
2017-Jun-20 13:58N 43°40' E 013°24'0 0.0
2017-Jun-20 13:28N 43°40' E 013°24'2 3.3
2017-Jun-20 12:59N 43°40' E 013°27'0 0.2
2017-Jun-20 11:56N 43°40' E 013°26'0 0.0
2017-Jun-20 08:05N 43°40' E 013°27'0 0.0
2017-Jun-20 07:53N 43°40' E 013°27'0 0.0
2017-Jun-20 07:17N 43°40' E 013°27'0 0.0
2017-Jun-20 06:59N 43°40' E 013°27'0 0.0
2017-Jun-20 06:26N 43°40' E 013°27'0 0.0
2017-Jun-20 05:56N 43°40' E 013°27'0 0.0
2017-Jun-20 05:26N 43°40' E 013°27'0 0.1
2017-Jun-20 04:20N 43°40' E 013°27'0 0.0
2017-Jun-20 03:53N 43°40' E 013°27'0 0.0
2017-Jun-20 03:23N 43°40' E 013°27'0 0.0
2017-Jun-20 02:23N 43°40' E 013°27'0 0.0
2017-Jun-20 01:53N 43°40' E 013°27'0 0.0
2017-Jun-20 01:23N 43°40' E 013°27'0 0.1
2017-Jun-20 00:56N 43°40' E 013°27'0 0.0
2017-Jun-20 00:26N 43°40' E 013°27'0 0.0
2017-Jun-19 23:53N 43°40' E 013°27'0 0.0
2017-Jun-19 23:23N 43°40' E 013°27'0 0.0
2017-Jun-19 19:47N 43°40' E 013°27'0 0.0
2017-Jun-19 18:38N 43°40' E 013°27'0 0.1
2017-Jun-19 18:26N 43°40' E 013°27'0 0.1
2017-Jun-19 17:59N 43°40' E 013°27'  

Dump ship's entire track history